KVRB/VRB METAR and TAF weather

Enter ICAO airport designator
Station Type Date Time Source
KVRB METAR 2020/07/14 20:53 UTC NOAA

KVRB 142053Z 26008KT 10SM VCTS FEW060 26/23 A3004 RMK AO2 LTG DSNT S-W RAE1954 SLP173 P0000 60017 T02610228 50006


Station Type Date Time Source
KVRB Decoded METAR 2020/07/14 20:53 UTC NOAA

VERO BEACH MUNICIPAL AIRPORT , FL, United States (KVRB) 27-39N 080-25W 10M
Jul 14, 2020 - 04:53 PM EDT / 2020.07.14 2053 UTC
Wind: from the W (260 degrees) at 9 MPH (8 KT):0
Visibility: 10 mile(s):0
Sky conditions: mostly clear
Weather: thunder in the vicinity; Lightning observed
Precipitation last hour: A trace
Temperature: 79.0 F (26.1 C)
Dew Point: 73.0 F (22.8 C)
Relative Humidity: 82%
Pressure (altimeter): 30.04 in. Hg (1017 hPa)
Pressure tendency: 0.02 inches (0.6 hPa) higher than three hours ago
ob: KVRB 142053Z 26008KT 10SM VCTS FEW060 26/23 A3004 RMK AO2 LTG DSNT S-W RAE1954 SLP173 P0000 60017 T02610228 50006
cycle: 21

Station Type Date Time Source
KVRB TAF 2020/07/14 19:58 UTC NOAA

TAF
AMD KVRB 141858Z 1419/1518 10009KT P6SM VCTS SCT040CB BKN250
TEMPO 1419/1421 3SM TSRA SCT030CB
FM150000 VRB04KT P6SM FEW040 SCT250
FM151400 34005KT P6SM SCT030
FM151600 07006KT P6SM SCT035 SCT250

Example: see airport list